createdAt,value
2019-05-21T00:01:56.520Z,99.90
2019-05-21T00:04:28.605Z,99.90
2019-05-21T00:06:57.357Z,99.90
2019-05-21T00:09:26.998Z,99.90
2019-05-21T00:11:56.613Z,99.90
2019-05-21T00:14:26.280Z,99.90
2019-05-21T00:16:55.851Z,99.90
2019-05-21T00:19:25.991Z,99.90
2019-05-21T00:21:55.989Z,99.90
2019-05-21T00:24:25.602Z,99.90
2019-05-21T00:26:55.515Z,99.90
2019-05-21T00:30:00.319Z,99.90
2019-05-21T00:33:05.114Z,99.90
2019-05-21T00:36:10.446Z,99.90
2019-05-21T00:39:15.220Z,99.90
2019-05-21T00:42:04.670Z,99.90
2019-05-21T00:44:37.580Z,99.90
2019-05-21T00:47:09.841Z,99.90
2019-05-21T00:49:39.670Z,99.90
2019-05-21T00:52:09.888Z,99.90
2019-05-21T00:54:39.479Z,99.90
2019-05-21T00:57:09.124Z,99.90
2019-05-21T00:59:38.750Z,99.90
2019-05-21T01:02:08.395Z,99.90
2019-05-21T01:04:38.013Z,99.90
2019-05-21T01:07:07.613Z,99.90
2019-05-21T01:09:37.229Z,99.90
2019-05-21T01:12:06.799Z,99.90
2019-05-21T01:14:36.653Z,99.90
2019-05-21T01:17:06.462Z,99.90
2019-05-21T01:19:36.109Z,99.90
2019-05-21T01:22:06.191Z,99.90
2019-05-21T01:24:36.064Z,99.90
2019-05-21T01:27:05.660Z,99.90
2019-05-21T01:29:36.706Z,99.90
2019-05-21T01:32:06.795Z,99.90
2019-05-21T01:34:36.540Z,99.90
2019-05-21T01:37:06.345Z,99.90
2019-05-21T01:39:35.963Z,99.90
2019-05-21T01:42:05.534Z,99.90
2019-05-21T01:44:35.203Z,99.90
2019-05-21T01:47:04.744Z,99.90
2019-05-21T01:49:34.378Z,99.90
2019-05-21T01:52:03.963Z,99.90
2019-05-21T01:54:33.874Z,99.90
2019-05-21T01:57:03.591Z,99.90
2019-05-21T01:59:33.279Z,99.90
2019-05-21T02:02:03.093Z,99.90
2019-05-21T02:04:32.666Z,99.90
2019-05-21T02:07:02.413Z,99.90
2019-05-21T02:09:35.025Z,99.90
2019-05-21T02:12:04.665Z,99.90
2019-05-21T02:14:34.795Z,99.90
2019-05-21T02:17:04.398Z,99.90
2019-05-21T02:19:33.983Z,99.90
2019-05-21T02:22:03.573Z,99.90
2019-05-21T02:24:33.195Z,99.90
2019-05-21T02:27:03.061Z,99.90
2019-05-21T02:29:32.638Z,99.90
2019-05-21T02:32:02.311Z,99.90
2019-05-21T02:34:32.133Z,99.90
2019-05-21T02:37:06.179Z,99.90
2019-05-21T02:39:34.123Z,99.90
2019-05-21T02:42:03.719Z,99.90
2019-05-21T02:44:33.334Z,99.90
2019-05-21T02:47:02.954Z,99.90
2019-05-21T02:49:32.506Z,99.90
2019-05-21T02:52:02.705Z,99.90
2019-05-21T02:54:40.923Z,99.90
2019-05-21T02:57:04.030Z,99.90
2019-05-21T02:59:33.724Z,99.90
2019-05-21T03:02:09.366Z,99.90
2019-05-21T03:04:38.958Z,99.90
2019-05-21T03:07:20.640Z,99.90
2019-05-21T03:09:50.463Z,99.90
2019-05-21T03:12:20.088Z,99.90
2019-05-21T03:14:49.638Z,99.90
2019-05-21T03:17:19.695Z,99.90
2019-05-21T03:19:49.332Z,99.90
2019-05-21T03:22:18.933Z,99.90
2019-05-21T03:24:48.620Z,99.90
2019-05-21T03:27:18.159Z,99.90
2019-05-21T03:29:47.809Z,99.90
2019-05-21T03:32:17.389Z,99.90
2019-05-21T03:34:47.003Z,99.90
2019-05-21T03:37:16.576Z,99.90
2019-05-21T03:39:46.399Z,99.90
2019-05-21T03:42:15.928Z,99.90
2019-05-21T03:44:59.240Z,99.90
2019-05-21T03:47:17.169Z,99.90
2019-05-21T03:49:46.732Z,99.90
2019-05-21T03:52:16.316Z,99.90
2019-05-21T03:54:45.894Z,99.90
2019-05-21T03:57:16.024Z,99.90
2019-05-21T03:59:45.611Z,99.90
2019-05-21T04:02:15.237Z,99.90
2019-05-21T04:04:44.812Z,99.90
2019-05-21T04:07:14.660Z,99.90
2019-05-21T04:09:44.276Z,99.90
2019-05-21T04:12:13.902Z,99.90
2019-05-21T04:14:47.961Z,99.90
2019-05-21T04:17:36.492Z,99.90
2019-05-21T04:20:06.974Z,99.90
2019-05-21T04:22:39.589Z,99.90
2019-05-21T04:25:09.796Z,99.90
2019-05-21T04:27:39.646Z,99.90
2019-05-21T04:30:11.404Z,99.90
2019-05-21T04:32:40.826Z,99.90
2019-05-21T04:35:10.457Z,99.90
2019-05-21T04:37:40.061Z,99.90
2019-05-21T04:40:09.708Z,99.90
2019-05-21T04:42:39.274Z,99.90
2019-05-21T04:45:09.098Z,99.90
2019-05-21T04:47:38.673Z,99.90
2019-05-21T04:50:08.959Z,99.90
2019-05-21T04:52:38.808Z,99.90
2019-05-21T04:55:08.811Z,99.90
2019-05-21T04:57:38.683Z,99.90
2019-05-21T05:00:08.853Z,99.90
2019-05-21T05:02:38.471Z,99.90
2019-05-21T05:05:08.239Z,99.90
2019-05-21T05:07:38.067Z,99.90
2019-05-21T05:10:08.017Z,99.90
2019-05-21T05:12:37.617Z,99.90
2019-05-21T05:15:07.788Z,99.90
2019-05-21T05:17:37.663Z,99.90
2019-05-21T05:20:07.409Z,99.90
2019-05-21T05:22:36.984Z,99.90
2019-05-21T05:25:07.124Z,99.90
2019-05-21T05:27:36.796Z,99.90
2019-05-21T05:30:07.445Z,99.90
2019-05-21T05:32:37.057Z,99.90
2019-05-21T05:35:06.818Z,99.90
2019-05-21T05:37:43.878Z,99.90
2019-05-21T05:40:08.878Z,99.90
2019-05-21T05:42:39.046Z,99.90
2019-05-21T05:45:09.136Z,99.90
2019-05-21T05:47:38.705Z,99.90
2019-05-21T05:50:10.156Z,99.90
2019-05-21T05:52:39.720Z,99.90
2019-05-21T05:55:09.544Z,99.90
2019-05-21T05:57:39.176Z,99.90
2019-05-21T06:00:11.941Z,99.90
2019-05-21T06:02:41.479Z,99.90
2019-05-21T06:05:11.714Z,99.90
2019-05-21T06:07:41.338Z,99.90
2019-05-21T06:10:11.040Z,99.90
2019-05-21T06:12:40.961Z,99.90
2019-05-21T06:15:10.511Z,99.90
2019-05-21T06:17:40.124Z,99.90
2019-05-21T06:20:10.974Z,99.90
2019-05-21T06:22:40.534Z,99.90
2019-05-21T06:25:11.116Z,99.90
2019-05-21T06:27:41.017Z,99.90
2019-05-21T06:30:11.554Z,99.90
2019-05-21T06:32:41.180Z,99.90
2019-05-21T06:35:11.253Z,99.90
2019-05-21T06:37:41.133Z,99.90
2019-05-21T06:40:11.424Z,99.90
2019-05-21T06:42:41.288Z,99.90
2019-05-21T06:45:11.274Z,99.90
2019-05-21T06:47:41.159Z,99.90
2019-05-21T06:50:10.910Z,99.90
2019-05-21T06:52:40.819Z,99.90
2019-05-21T06:55:10.509Z,99.90
2019-05-21T06:57:40.159Z,99.90
2019-05-21T07:00:10.710Z,99.90
2019-05-21T07:02:40.357Z,99.90
2019-05-21T07:05:10.103Z,99.90
2019-05-21T07:07:39.733Z,99.90
2019-05-21T07:10:09.565Z,99.90
2019-05-21T07:12:39.177Z,99.90
2019-05-21T07:15:08.979Z,99.90
2019-05-21T07:17:38.603Z,99.90
2019-05-21T07:20:08.942Z,99.90
2019-05-21T07:22:38.560Z,99.90
2019-05-21T07:25:08.333Z,99.90
2019-05-21T07:27:38.009Z,99.90
2019-05-21T07:30:07.712Z,99.90
2019-05-21T07:32:37.778Z,99.90
2019-05-21T07:35:07.595Z,99.90
2019-05-21T07:37:37.178Z,99.90
2019-05-21T07:40:07.536Z,99.90
2019-05-21T07:42:37.124Z,99.90
2019-05-21T07:45:07.611Z,99.90
2019-05-21T07:47:37.215Z,99.90
2019-05-21T07:50:07.528Z,99.90
2019-05-21T07:52:37.392Z,99.90
2019-05-21T07:55:07.371Z,99.90
2019-05-21T07:57:36.960Z,99.90
2019-05-21T08:00:07.051Z,99.90
2019-05-21T08:02:36.669Z,99.90
2019-05-21T08:05:06.700Z,99.90
2019-05-21T08:07:36.288Z,99.90
2019-05-21T08:10:07.186Z,99.90
2019-05-21T08:12:39.300Z,99.90
2019-05-21T08:15:08.697Z,99.90
2019-05-21T08:17:38.301Z,99.90
2019-05-21T08:20:10.423Z,99.90
2019-05-21T08:22:40.025Z,99.90
2019-05-21T08:25:14.223Z,99.90
2019-05-21T08:27:41.519Z,99.90
2019-05-21T08:30:11.394Z,99.90
2019-05-21T08:32:41.063Z,99.90
2019-05-21T08:35:10.932Z,99.90
2019-05-21T08:37:40.592Z,99.90
2019-05-21T08:40:10.889Z,99.90
2019-05-21T08:42:40.618Z,99.80
2019-05-21T08:45:10.559Z,99.90
2019-05-21T08:47:40.483Z,99.90
2019-05-21T08:50:10.687Z,99.90
2019-05-21T08:52:40.261Z,99.90
2019-05-21T08:55:10.642Z,99.90
2019-05-21T08:57:40.647Z,99.00
2019-05-21T09:00:14.204Z,99.40
2019-05-21T09:02:43.814Z,99.90
2019-05-21T09:05:14.312Z,99.90
2019-05-21T09:07:44.140Z,99.90
2019-05-21T09:10:14.029Z,99.90
2019-05-21T09:12:43.689Z,99.90
2019-05-21T09:15:13.755Z,99.90
2019-05-21T09:17:43.433Z,99.90
2019-05-21T09:20:14.761Z,99.90
2019-05-21T09:22:44.908Z,99.90
2019-05-21T09:25:15.093Z,99.90
2019-05-21T09:27:45.171Z,99.90
2019-05-21T09:30:16.751Z,99.90
2019-05-21T09:32:46.643Z,99.90
2019-05-21T09:35:16.212Z,99.90
2019-05-21T09:37:46.163Z,99.90
2019-05-21T09:40:16.369Z,99.90
2019-05-21T09:42:46.032Z,99.90
2019-05-21T09:45:16.256Z,99.90
2019-05-21T09:47:45.877Z,99.90
2019-05-21T09:50:16.989Z,99.90
2019-05-21T09:52:46.563Z,99.90
2019-05-21T09:55:16.586Z,98.80
2019-05-21T09:57:58.077Z,99.00
2019-05-21T10:00:45.398Z,99.60
2019-05-21T10:03:16.581Z,99.90
2019-05-21T10:05:46.223Z,99.90
2019-05-21T10:08:16.094Z,99.60
2019-05-21T10:10:45.680Z,99.80
2019-05-21T10:13:15.281Z,99.90
2019-05-21T10:15:45.172Z,99.90
2019-05-21T10:18:14.760Z,99.90
2019-05-21T10:20:44.358Z,99.90
2019-05-21T10:23:14.207Z,99.90
2019-05-21T10:25:44.669Z,99.90
2019-05-21T10:28:14.248Z,99.90
2019-05-21T10:30:43.892Z,99.90
2019-05-21T10:33:13.528Z,99.90
2019-05-21T10:35:43.257Z,99.90
2019-05-21T10:38:13.129Z,99.90
2019-05-21T10:40:42.733Z,99.90
2019-05-21T10:43:12.568Z,99.90
2019-05-21T10:45:42.536Z,99.90
2019-05-21T10:48:12.139Z,99.90
2019-05-21T10:50:42.038Z,99.90
2019-05-21T10:53:12.004Z,99.90
2019-05-21T10:55:41.611Z,99.90
2019-05-21T10:58:11.169Z,99.90
2019-05-21T11:00:41.249Z,99.90
2019-05-21T11:03:17.589Z,99.90
2019-05-21T11:05:50.553Z,99.90
2019-05-21T11:08:24.035Z,99.90
2019-05-21T11:10:51.391Z,99.90
2019-05-21T11:13:21.312Z,99.90
2019-05-21T11:15:50.944Z,99.90
2019-05-21T11:18:20.493Z,99.90
2019-05-21T11:20:50.121Z,99.90
2019-05-21T11:23:19.697Z,99.90
2019-05-21T11:25:49.796Z,99.90
2019-05-21T11:28:19.405Z,99.90
2019-05-21T11:30:49.026Z,99.90
2019-05-21T11:33:19.145Z,99.90
2019-05-21T11:35:48.935Z,99.90
2019-05-21T11:38:18.950Z,99.90
2019-05-21T11:40:51.048Z,99.90
2019-05-21T11:43:20.053Z,99.90
2019-05-21T11:45:49.658Z,99.90
2019-05-21T11:48:19.358Z,99.90
2019-05-21T11:50:48.916Z,99.90
2019-05-21T11:53:18.608Z,99.90
2019-05-21T11:55:48.497Z,99.90
2019-05-21T11:58:18.145Z,99.90
2019-05-21T12:00:48.039Z,99.90
2019-05-21T12:03:17.708Z,99.90
2019-05-21T12:05:47.300Z,99.90
2019-05-21T12:08:17.168Z,99.90
2019-05-21T12:10:46.819Z,99.90
2019-05-21T12:13:20.298Z,99.90
2019-05-21T12:15:47.901Z,99.90
2019-05-21T12:18:17.497Z,99.90
2019-05-21T12:20:47.094Z,99.90
2019-05-21T12:23:16.933Z,99.90
2019-05-21T12:25:46.542Z,99.90
2019-05-21T12:28:16.116Z,99.90
2019-05-21T12:30:45.723Z,99.90
2019-05-21T12:33:15.306Z,99.90
2019-05-21T12:35:45.012Z,99.90
2019-05-21T12:38:14.595Z,99.90
2019-05-21T12:40:44.265Z,99.90
2019-05-21T12:43:14.207Z,99.90
2019-05-21T12:45:43.882Z,99.90
2019-05-21T12:48:13.705Z,99.90
2019-05-21T12:50:43.641Z,99.90
2019-05-21T12:53:16.514Z,99.90
2019-05-21T12:55:44.729Z,99.90
2019-05-21T12:58:14.586Z,99.90
2019-05-21T13:00:44.347Z,99.90
2019-05-21T13:03:14.538Z,99.90
2019-05-21T13:05:44.097Z,99.90
2019-05-21T13:08:13.830Z,99.90
2019-05-21T13:10:43.681Z,99.90
2019-05-21T13:13:13.590Z,99.90
2019-05-21T13:15:43.164Z,99.90
2019-05-21T13:18:12.804Z,99.90
2019-05-21T13:20:42.614Z,99.90
2019-05-21T13:23:12.262Z,99.90
2019-05-21T13:25:42.134Z,99.90
2019-05-21T13:28:12.039Z,99.90
2019-05-21T13:30:41.696Z,99.90
2019-05-21T13:33:11.364Z,99.90
2019-05-21T13:35:41.322Z,99.90
2019-05-21T13:38:13.452Z,99.90
2019-05-21T13:40:43.295Z,99.90
2019-05-21T13:43:13.129Z,99.90
2019-05-21T13:45:42.737Z,99.90
2019-05-21T13:48:12.577Z,99.90
2019-05-21T13:50:42.568Z,99.90
2019-05-21T13:53:12.366Z,99.90
2019-05-21T13:55:42.017Z,99.90
2019-05-21T13:58:11.610Z,99.90
2019-05-21T14:00:45.422Z,99.90
2019-05-21T14:03:14.982Z,99.90
2019-05-21T14:05:44.856Z,99.90
2019-05-21T14:08:15.180Z,99.90
2019-05-21T14:10:45.117Z,99.90
2019-05-21T14:13:15.279Z,99.90
2019-05-21T14:15:44.850Z,99.90
2019-05-21T14:18:14.452Z,99.90
2019-05-21T14:20:44.307Z,99.90
2019-05-21T14:23:13.941Z,99.90
2019-05-21T14:25:43.503Z,99.90
2019-05-21T14:28:13.406Z,99.90
2019-05-21T14:30:42.979Z,99.90
2019-05-21T14:33:12.602Z,99.90
2019-05-21T14:35:42.254Z,99.90
2019-05-21T14:38:11.873Z,99.90
2019-05-21T14:40:41.718Z,99.90
2019-05-21T14:43:11.350Z,99.90
2019-05-21T14:45:40.930Z,99.90
2019-05-21T14:48:10.879Z,99.90
2019-05-21T14:50:40.410Z,99.90
2019-05-21T14:53:10.134Z,99.90
2019-05-21T14:55:39.779Z,99.90
2019-05-21T14:58:09.301Z,99.90
2019-05-21T15:00:39.386Z,99.90
2019-05-21T15:03:24.143Z,99.90
2019-05-21T15:05:40.746Z,99.90
2019-05-21T15:08:10.355Z,99.90
2019-05-21T15:10:48.403Z,99.90
2019-05-21T15:13:11.174Z,99.20
2019-05-21T15:15:40.808Z,97.60
2019-05-21T15:18:14.630Z,96.50
2019-05-21T15:20:49.389Z,97.40
2019-05-21T15:23:18.978Z,97.30
2019-05-21T15:25:48.910Z,97.50
2019-05-21T15:28:18.511Z,95.90
2019-05-21T15:30:48.369Z,95.40
2019-05-21T15:33:18.123Z,94.40
2019-05-21T15:35:47.756Z,95.20
2019-05-21T15:38:17.302Z,94.30
2019-05-21T15:40:46.920Z,94.00
2019-05-21T15:43:16.466Z,94.10
2019-05-21T15:45:46.357Z,92.50
2019-05-21T15:48:15.952Z,92.40
2019-05-21T15:50:45.597Z,93.80
2019-05-21T15:53:15.207Z,95.00
2019-05-21T15:55:45.097Z,94.80
2019-05-21T15:58:14.676Z,94.10
2019-05-21T16:00:44.340Z,93.80
2019-05-21T16:03:14.163Z,94.10
2019-05-21T16:05:43.892Z,93.50
2019-05-21T16:08:13.514Z,93.90
2019-05-21T16:10:43.087Z,93.90
2019-05-21T16:13:13.008Z,94.00
2019-05-21T16:15:42.582Z,94.20
2019-05-21T16:18:12.195Z,93.10
2019-05-21T16:20:42.698Z,93.50
2019-05-21T16:23:12.522Z,92.70
2019-05-21T16:25:42.141Z,92.80
2019-05-21T16:28:11.778Z,94.50
2019-05-21T16:30:41.409Z,94.80
2019-05-21T16:33:11.042Z,94.60
2019-05-21T16:35:40.621Z,95.00
2019-05-21T16:38:10.539Z,93.90
2019-05-21T16:40:40.194Z,93.50
2019-05-21T16:43:09.789Z,94.00
2019-05-21T16:45:39.392Z,93.00
2019-05-21T16:48:09.041Z,93.00
2019-05-21T16:50:38.702Z,92.70
2019-05-21T16:53:08.668Z,92.40
2019-05-21T16:55:38.469Z,93.00
2019-05-21T16:58:08.414Z,93.00
2019-05-21T17:00:38.044Z,93.00
2019-05-21T17:03:07.659Z,93.90
2019-05-21T17:05:37.320Z,94.10
2019-05-21T17:08:06.906Z,94.60
2019-05-21T17:10:36.824Z,94.00
2019-05-21T17:13:06.535Z,94.60
2019-05-21T17:15:36.711Z,94.70
2019-05-21T17:18:06.796Z,95.10
2019-05-21T17:20:36.464Z,94.00
2019-05-21T17:23:06.063Z,94.00
2019-05-21T17:25:36.017Z,94.60
2019-05-21T17:28:05.619Z,94.40
2019-05-21T17:30:35.464Z,94.10
2019-05-21T17:33:05.176Z,94.40
2019-05-21T17:35:34.769Z,94.90
2019-05-21T17:38:04.369Z,93.80
2019-05-21T17:40:34.040Z,94.30
2019-05-21T17:43:03.620Z,93.90
2019-05-21T17:45:33.217Z,94.20
2019-05-21T17:48:02.868Z,94.30
2019-05-21T17:50:32.848Z,93.90
2019-05-21T17:53:02.558Z,93.30
2019-05-21T17:55:32.722Z,93.80
2019-05-21T17:58:02.478Z,93.50
2019-05-21T18:00:46.157Z,93.80
2019-05-21T18:03:16.075Z,93.90
2019-05-21T18:05:46.290Z,94.30
2019-05-21T18:08:17.194Z,94.50
2019-05-21T18:10:47.128Z,94.00
2019-05-21T18:13:18.074Z,94.80
2019-05-21T18:15:47.711Z,95.90
2019-05-21T18:18:17.358Z,96.90
2019-05-21T18:20:46.994Z,96.60
2019-05-21T18:23:16.630Z,97.60
2019-05-21T18:25:46.256Z,97.00
2019-05-21T18:28:16.260Z,97.10
2019-05-21T18:30:46.056Z,96.60
2019-05-21T18:33:15.664Z,95.80
2019-05-21T18:35:45.560Z,95.90
2019-05-21T18:38:15.194Z,96.70
2019-05-21T18:40:44.962Z,96.30
2019-05-21T18:43:14.717Z,95.60
2019-05-21T18:45:44.629Z,95.70
2019-05-21T18:48:14.624Z,96.40
2019-05-21T18:50:44.298Z,96.20
2019-05-21T18:53:13.906Z,96.70
2019-05-21T18:55:43.817Z,96.70
2019-05-21T18:58:16.998Z,97.00
2019-05-21T19:00:45.525Z,96.80
2019-05-21T19:03:15.198Z,96.70
2019-05-21T19:05:46.498Z,96.80
2019-05-21T19:08:16.400Z,96.60
2019-05-21T19:10:46.234Z,96.60
2019-05-21T19:13:15.836Z,96.40
2019-05-21T19:15:45.455Z,96.30
2019-05-21T19:18:15.020Z,97.10
2019-05-21T19:20:44.734Z,97.40
2019-05-21T19:23:14.295Z,97.70
2019-05-21T19:25:44.187Z,97.80
2019-05-21T19:28:14.214Z,97.40
2019-05-21T19:30:44.109Z,97.20
2019-05-21T19:33:13.799Z,96.30
2019-05-21T19:35:43.401Z,96.70
2019-05-21T19:38:13.060Z,96.80
2019-05-21T19:40:44.649Z,96.50
2019-05-21T19:43:14.304Z,96.00
2019-05-21T19:45:44.050Z,95.70
2019-05-21T19:48:13.786Z,95.20
2019-05-21T19:50:43.838Z,95.30
2019-05-21T19:53:14.086Z,95.70
2019-05-21T19:55:44.058Z,95.80
2019-05-21T19:58:13.670Z,95.20
2019-05-21T20:00:50.461Z,95.00
2019-05-21T20:03:20.495Z,95.10
2019-05-21T20:05:50.404Z,95.20
2019-05-21T20:08:20.176Z,94.90
2019-05-21T20:10:49.814Z,94.70
2019-05-21T20:13:31.832Z,94.30
2019-05-21T20:15:51.104Z,94.60
2019-05-21T20:18:21.313Z,94.40
2019-05-21T20:20:51.066Z,95.50
2019-05-21T20:23:21.672Z,95.60
2019-05-21T20:25:56.486Z,95.20
2019-05-21T20:28:23.812Z,94.30
2019-05-21T20:30:54.191Z,93.70
2019-05-21T20:33:24.204Z,93.80
2019-05-21T20:35:55.604Z,94.20
2019-05-21T20:38:25.758Z,94.00
2019-05-21T20:40:55.714Z,94.00
2019-05-21T20:43:25.342Z,94.30
2019-05-21T20:45:54.987Z,94.30
2019-05-21T20:48:26.645Z,94.50
2019-05-21T20:50:56.271Z,95.40
2019-05-21T20:53:25.994Z,95.00
2019-05-21T20:55:56.046Z,94.80
2019-05-21T20:58:26.097Z,95.30
2019-05-21T21:01:01.149Z,95.10
2019-05-21T21:03:31.829Z,94.70
2019-05-21T21:06:01.820Z,93.90
2019-05-21T21:08:33.302Z,95.10
2019-05-21T21:11:03.671Z,94.80
2019-05-21T21:13:33.871Z,94.60
2019-05-21T21:16:04.035Z,95.00
2019-05-21T21:18:34.340Z,95.10
2019-05-21T21:21:04.018Z,94.90
2019-05-21T21:23:34.858Z,95.00
2019-05-21T21:26:05.739Z,95.40
2019-05-21T21:28:35.347Z,96.70
2019-05-21T21:31:06.045Z,96.60
2019-05-21T21:33:36.103Z,96.30
2019-05-21T21:36:05.939Z,95.80
2019-05-21T21:38:37.566Z,95.60
2019-05-21T21:41:08.250Z,95.90
2019-05-21T21:43:37.995Z,96.40
2019-05-21T21:46:07.577Z,96.40
2019-05-21T21:48:37.339Z,96.30
2019-05-21T21:51:08.137Z,96.10
2019-05-21T21:53:39.347Z,96.40
2019-05-21T21:56:10.684Z,96.50
2019-05-21T21:58:40.254Z,96.40
2019-05-21T22:01:43.375Z,96.30
2019-05-21T22:04:16.012Z,96.70
2019-05-21T22:06:47.102Z,96.40
2019-05-21T22:09:23.641Z,97.20
2019-05-21T22:11:55.244Z,97.00
2019-05-21T22:14:24.983Z,96.70
2019-05-21T22:16:56.017Z,96.80
2019-05-21T22:19:25.549Z,96.80
2019-05-21T22:21:55.345Z,96.40
2019-05-21T22:24:25.219Z,96.30
2019-05-21T22:26:55.282Z,96.20
2019-05-21T22:29:25.597Z,96.30
2019-05-21T22:31:55.520Z,95.70
2019-05-21T22:34:25.084Z,94.70
2019-05-21T22:36:54.772Z,95.10
2019-05-21T22:39:26.482Z,95.20
2019-05-21T22:41:56.198Z,95.00
2019-05-21T22:44:25.773Z,95.10
2019-05-21T22:46:55.529Z,95.30
2019-05-21T22:49:25.823Z,94.90
2019-05-21T22:51:55.937Z,94.80
2019-05-21T22:54:25.719Z,95.10
2019-05-21T22:56:55.375Z,95.20
2019-05-21T22:59:25.079Z,95.80
2019-05-21T23:01:56.759Z,96.40
2019-05-21T23:04:26.501Z,96.40
2019-05-21T23:06:56.137Z,96.30
2019-05-21T23:09:25.876Z,96.50
2019-05-21T23:11:55.446Z,96.30
2019-05-21T23:14:25.095Z,96.10
2019-05-21T23:16:54.672Z,96.40
2019-05-21T23:19:25.379Z,96.50
2019-05-21T23:21:56.585Z,96.20
2019-05-21T23:24:27.432Z,96.40
2019-05-21T23:26:57.155Z,96.10
2019-05-21T23:29:27.050Z,96.10
2019-05-21T23:31:56.876Z,95.90
2019-05-21T23:34:26.750Z,96.00
2019-05-21T23:36:57.628Z,96.30
2019-05-21T23:39:30.500Z,96.40
2019-05-21T23:42:01.731Z,97.00
2019-05-21T23:44:31.306Z,97.90
2019-05-21T23:47:01.563Z,99.20
2019-05-21T23:49:31.463Z,99.60
2019-05-21T23:52:03.395Z,99.40
2019-05-21T23:54:33.457Z,99.80
2019-05-21T23:57:04.116Z,99.60
2019-05-21T23:59:33.726Z,99.90
